createdAt,value
2023-05-28T00:01:33.402Z,4.43
2023-05-28T00:04:01.054Z,4.70
2023-05-28T00:06:28.755Z,4.05
2023-05-28T00:08:56.818Z,6.85
2023-05-28T00:11:24.783Z,3.80
2023-05-28T00:13:52.387Z,4.35
2023-05-28T00:16:21.351Z,3.95
2023-05-28T00:18:48.958Z,4.50
2023-05-28T00:21:16.577Z,5.22
2023-05-28T00:23:44.771Z,4.15
2023-05-28T00:26:12.315Z,4.93
2023-05-28T00:28:39.884Z,5.03
2023-05-28T00:31:07.489Z,4.25
2023-05-28T00:33:36.648Z,3.22
2023-05-28T00:36:04.407Z,4.38
2023-05-28T00:38:32.525Z,4.50
2023-05-28T00:41:00.329Z,5.07
2023-05-28T00:43:27.992Z,4.72
2023-05-28T00:45:59.779Z,4.65
2023-05-28T00:48:27.555Z,4.63
2023-05-28T00:50:56.696Z,4.70
2023-05-28T00:53:25.839Z,6.20
2023-05-28T00:55:54.416Z,4.13
2023-05-28T00:58:23.076Z,4.00
2023-05-28T01:00:50.782Z,5.35
2023-05-28T01:03:19.178Z,4.15
2023-05-28T01:05:47.104Z,4.43
2023-05-28T01:08:16.427Z,4.22
2023-05-28T01:10:44.112Z,4.63
2023-05-28T01:13:13.002Z,3.40
2023-05-28T01:15:41.318Z,4.00
2023-05-28T01:18:09.330Z,4.30
2023-05-28T01:20:37.489Z,5.65
2023-05-28T01:23:08.890Z,2.80
2023-05-28T01:25:39.427Z,3.50
2023-05-28T01:28:13.874Z,3.10
2023-05-28T01:30:41.534Z,3.08
2023-05-28T01:33:09.340Z,3.60
2023-05-28T01:35:36.901Z,4.25
2023-05-28T01:38:05.510Z,3.45
2023-05-28T01:40:35.767Z,3.47
2023-05-28T01:43:05.587Z,3.75
2023-05-28T01:45:33.465Z,3.35
2023-05-28T01:48:01.153Z,3.95
2023-05-28T01:50:29.787Z,4.40
2023-05-28T01:52:57.363Z,3.45
2023-05-28T01:55:26.326Z,3.38
2023-05-28T01:57:53.911Z,2.92
2023-05-28T02:00:24.560Z,4.05
2023-05-28T02:02:53.173Z,3.90
2023-05-28T02:05:20.796Z,4.22
2023-05-28T02:07:48.398Z,3.17
2023-05-28T02:10:16.260Z,3.40
2023-05-28T02:12:43.818Z,4.28
2023-05-28T02:15:12.392Z,2.88
2023-05-28T02:17:41.496Z,3.60
2023-05-28T02:20:10.613Z,3.40
2023-05-28T02:22:38.507Z,4.03
2023-05-28T02:25:06.749Z,2.92
2023-05-28T02:27:34.339Z,3.80
2023-05-28T02:30:01.971Z,4.20
2023-05-28T02:32:29.607Z,2.95
2023-05-28T02:34:59.030Z,4.20
2023-05-28T02:37:27.527Z,3.60
2023-05-28T02:39:55.389Z,5.05
2023-05-28T02:42:22.987Z,3.35
2023-05-28T02:44:50.676Z,3.00
2023-05-28T02:47:18.220Z,6.93
2023-05-28T02:49:45.850Z,4.20
2023-05-28T02:52:14.830Z,3.83
2023-05-28T02:54:42.434Z,4.00
2023-05-28T02:57:09.999Z,3.50
2023-05-28T02:59:37.613Z,2.95
2023-05-28T03:02:05.563Z,3.40
2023-05-28T03:04:33.569Z,3.88
2023-05-28T03:07:01.113Z,3.40
2023-05-28T03:09:30.088Z,3.15
2023-05-28T03:11:57.697Z,4.05
2023-05-28T03:14:25.381Z,2.60
2023-05-28T03:16:52.997Z,3.35
2023-05-28T03:19:21.363Z,3.67
2023-05-28T03:21:48.970Z,3.25
2023-05-28T03:24:16.651Z,3.25
2023-05-28T03:26:46.179Z,3.22
2023-05-28T03:29:13.824Z,4.05
2023-05-28T03:31:46.396Z,3.25
2023-05-28T03:34:14.417Z,2.60
2023-05-28T03:36:42.366Z,3.35
2023-05-28T03:39:09.976Z,3.88
2023-05-28T03:41:37.873Z,3.53
2023-05-28T03:44:07.246Z,2.88
2023-05-28T03:46:35.000Z,3.35
2023-05-28T03:49:02.691Z,2.80
2023-05-28T03:51:30.376Z,3.42
2023-05-28T03:53:57.945Z,4.43
2023-05-28T03:56:25.555Z,4.63
2023-05-28T03:58:53.117Z,3.33
2023-05-28T04:01:22.023Z,3.67
2023-05-28T04:03:49.732Z,2.88
2023-05-28T04:06:17.507Z,3.25
2023-05-28T04:08:45.127Z,3.08
2023-05-28T04:11:13.294Z,2.97
2023-05-28T04:13:41.617Z,3.17
2023-05-28T04:16:10.502Z,3.58
2023-05-28T04:18:40.442Z,3.05
2023-05-28T04:21:08.085Z,3.17
2023-05-28T04:23:36.737Z,4.20
2023-05-28T04:26:07.474Z,3.10
2023-05-28T04:28:35.114Z,2.40
2023-05-28T04:31:02.933Z,3.28
2023-05-28T04:33:30.661Z,2.55
2023-05-28T04:36:00.130Z,3.20
2023-05-28T04:38:30.031Z,4.75
2023-05-28T04:40:57.671Z,2.70
2023-05-28T04:43:25.341Z,2.63
2023-05-28T04:45:54.553Z,3.08
2023-05-28T04:48:22.322Z,3.85
2023-05-28T04:50:51.309Z,2.95
2023-05-28T04:53:20.453Z,3.25
2023-05-28T04:55:48.050Z,2.90
2023-05-28T04:58:16.606Z,3.47
2023-05-28T05:00:44.190Z,3.08
2023-05-28T05:03:11.824Z,4.75
2023-05-28T05:05:41.193Z,3.20
2023-05-28T05:08:10.080Z,3.15
2023-05-28T05:10:39.006Z,3.05
2023-05-28T05:13:06.618Z,3.38
2023-05-28T05:15:34.692Z,4.03
2023-05-28T05:18:02.475Z,3.45
2023-05-28T05:20:30.599Z,2.97
2023-05-28T05:22:58.854Z,4.47
2023-05-28T05:25:26.524Z,3.28
2023-05-28T05:27:55.447Z,2.80
2023-05-28T05:30:22.995Z,3.05
2023-05-28T05:32:50.792Z,3.03
2023-05-28T05:35:20.670Z,3.38
2023-05-28T05:37:48.908Z,3.65
2023-05-28T05:40:16.569Z,4.45
2023-05-28T05:42:45.130Z,3.13
2023-05-28T05:45:14.124Z,3.67
2023-05-28T05:47:42.181Z,2.63
2023-05-28T05:50:13.202Z,2.72
2023-05-28T05:52:41.863Z,2.67
2023-05-28T05:55:09.761Z,2.70
2023-05-28T05:57:37.683Z,2.50
2023-05-28T06:00:07.873Z,2.80
2023-05-28T06:02:38.664Z,2.78
2023-05-28T06:05:07.326Z,3.22
2023-05-28T06:07:35.003Z,3.08
2023-05-28T06:10:02.592Z,3.45
2023-05-28T06:12:30.179Z,3.03
2023-05-28T06:14:57.802Z,3.00
2023-05-28T06:17:25.423Z,2.45
2023-05-28T06:19:54.381Z,2.45
2023-05-28T06:22:21.977Z,6.13
2023-05-28T06:24:50.743Z,3.47
2023-05-28T06:27:18.371Z,2.38
2023-05-28T06:29:46.330Z,2.75
2023-05-28T06:32:14.203Z,3.28
2023-05-28T06:34:41.918Z,3.25
2023-05-28T06:37:11.120Z,2.38
2023-05-28T06:39:38.704Z,3.30
2023-05-28T06:42:08.123Z,3.15
2023-05-28T06:44:36.106Z,4.00
2023-05-28T06:47:03.823Z,4.22
2023-05-28T06:49:31.469Z,3.83
2023-05-28T06:51:59.040Z,3.25
2023-05-28T06:54:27.981Z,2.92
2023-05-28T06:56:55.827Z,3.30
2023-05-28T06:59:23.520Z,2.97
2023-05-28T07:01:51.285Z,2.70
2023-05-28T07:04:19.211Z,2.70
2023-05-28T07:06:46.855Z,3.97
2023-05-28T07:09:14.425Z,2.92
2023-05-28T07:11:43.383Z,2.60
2023-05-28T07:14:10.961Z,2.53
2023-05-28T07:16:38.665Z,3.60
2023-05-28T07:19:06.473Z,3.95
2023-05-28T07:21:34.240Z,2.70
2023-05-28T07:24:01.940Z,2.67
2023-05-28T07:26:29.514Z,3.10
2023-05-28T07:28:58.494Z,2.78
2023-05-28T07:31:26.274Z,4.15
2023-05-28T07:33:54.663Z,2.60
2023-05-28T07:36:22.239Z,2.78
2023-05-28T07:38:49.862Z,2.22
2023-05-28T07:41:17.605Z,3.55
2023-05-28T07:43:45.165Z,3.88
2023-05-28T07:46:15.326Z,2.58
2023-05-28T07:48:44.086Z,2.38
2023-05-28T07:51:12.163Z,3.30
2023-05-28T07:53:39.851Z,2.55
2023-05-28T07:56:08.039Z,2.25
2023-05-28T07:58:35.618Z,4.07
2023-05-28T08:01:03.188Z,3.17
2023-05-28T08:03:32.240Z,4.03
2023-05-28T08:05:59.993Z,3.70
2023-05-28T08:08:27.562Z,2.88
2023-05-28T08:10:55.148Z,2.60
2023-05-28T08:13:22.862Z,4.15
2023-05-28T08:15:50.565Z,3.45
2023-05-28T08:18:18.323Z,4.45
2023-05-28T08:20:47.542Z,5.00
2023-05-28T08:23:15.146Z,4.82
2023-05-28T08:25:42.690Z,5.38
2023-05-28T08:28:10.844Z,3.53
2023-05-28T08:30:38.601Z,4.80
2023-05-28T08:33:06.449Z,8.05
2023-05-28T08:35:34.106Z,8.05
2023-05-28T08:38:03.000Z,3.13
2023-05-28T08:40:33.235Z,5.07
2023-05-28T08:43:00.835Z,6.57
2023-05-28T08:45:30.413Z,7.72
2023-05-28T08:47:58.307Z,5.55
2023-05-28T08:50:27.544Z,6.53
2023-05-28T08:52:55.574Z,8.10
2023-05-28T08:55:24.510Z,5.95
2023-05-28T08:57:54.336Z,5.22
2023-05-28T09:00:23.953Z,5.68
2023-05-28T09:02:51.922Z,4.75
2023-05-28T09:05:19.709Z,5.65
2023-05-28T09:07:47.363Z,6.95
2023-05-28T09:10:15.153Z,6.57
2023-05-28T09:12:59.381Z,4.57
2023-05-28T09:15:27.200Z,6.50
2023-05-28T09:17:54.938Z,6.43
2023-05-28T09:20:23.129Z,6.72
2023-05-28T09:23:00.444Z,6.15
2023-05-28T09:25:29.449Z,5.15
2023-05-28T09:27:58.858Z,5.03
2023-05-28T09:30:26.494Z,5.43
2023-05-28T09:32:59.537Z,5.95
2023-05-28T09:35:28.200Z,5.50
2023-05-28T09:38:03.110Z,4.85
2023-05-28T09:40:30.799Z,7.65
2023-05-28T09:42:59.733Z,8.68
2023-05-28T09:45:29.103Z,9.27
2023-05-28T09:47:56.856Z,6.57
2023-05-28T09:50:24.612Z,7.32
2023-05-28T09:52:56.415Z,5.50
2023-05-28T09:55:26.622Z,4.85
2023-05-28T09:58:02.005Z,4.60
2023-05-28T10:00:34.549Z,6.00
2023-05-28T10:03:14.825Z,6.40
2023-05-28T10:05:45.862Z,6.00
2023-05-28T10:08:17.404Z,4.95
2023-05-28T10:10:47.158Z,9.13
2023-05-28T10:13:16.570Z,9.95
2023-05-28T10:15:45.189Z,7.30
2023-05-28T10:18:15.580Z,6.28
2023-05-28T10:20:43.593Z,5.40
2023-05-28T10:23:12.672Z,4.93
2023-05-28T10:25:40.242Z,6.32
2023-05-28T10:28:08.853Z,4.72
2023-05-28T10:30:39.010Z,5.60
2023-05-28T10:33:07.305Z,7.10
2023-05-28T10:35:36.717Z,5.28
2023-05-28T10:38:07.969Z,5.55
2023-05-28T10:40:36.752Z,5.40
2023-05-28T10:43:04.696Z,4.95
2023-05-28T10:45:42.064Z,4.40
2023-05-28T10:48:17.002Z,6.43
2023-05-28T10:50:58.385Z,4.93
2023-05-28T10:53:27.138Z,5.88
2023-05-28T10:55:56.135Z,5.00
2023-05-28T10:58:34.526Z,6.47
2023-05-28T11:01:06.628Z,6.75
2023-05-28T11:03:42.599Z,5.57
2023-05-28T11:06:11.430Z,2.75
2023-05-28T11:08:44.525Z,4.53
2023-05-28T11:11:17.889Z,4.55
2023-05-28T11:13:46.413Z,5.32
2023-05-28T11:16:18.014Z,6.50
2023-05-28T11:19:05.547Z,5.68
2023-05-28T11:21:33.924Z,5.85
2023-05-28T11:24:03.177Z,5.40
2023-05-28T11:26:31.220Z,5.10
2023-05-28T11:28:58.914Z,4.88
2023-05-28T11:31:28.570Z,5.25
2023-05-28T11:33:57.058Z,5.43
2023-05-28T11:36:24.756Z,5.35
2023-05-28T11:39:02.903Z,5.30
2023-05-28T11:41:31.312Z,5.40
2023-05-28T11:43:58.935Z,7.00
2023-05-28T11:46:28.019Z,5.47
2023-05-28T11:48:55.679Z,5.55
2023-05-28T11:51:23.548Z,4.03
2023-05-28T11:53:51.130Z,6.82
2023-05-28T11:56:18.710Z,5.63
2023-05-28T11:58:49.257Z,6.95
2023-05-28T12:01:17.546Z,5.78
2023-05-28T12:03:47.194Z,3.13
2023-05-28T12:06:20.396Z,5.80
2023-05-28T12:08:53.604Z,4.07
2023-05-28T12:11:27.410Z,5.32
2023-05-28T12:13:55.024Z,4.35
2023-05-28T12:16:22.704Z,5.30
2023-05-28T12:18:51.674Z,4.30
2023-05-28T12:21:21.327Z,5.65
2023-05-28T12:23:49.043Z,4.90
2023-05-28T12:26:17.012Z,6.88
2023-05-28T12:28:45.324Z,4.03
2023-05-28T12:31:12.953Z,3.13
2023-05-28T12:33:40.683Z,3.33
2023-05-28T12:36:10.994Z,4.75
2023-05-28T12:38:38.587Z,3.53
2023-05-28T12:41:06.366Z,6.10
2023-05-28T12:43:33.963Z,6.20
2023-05-28T12:46:01.617Z,4.97
2023-05-28T12:48:36.476Z,6.43
2023-05-28T12:51:04.437Z,4.22
2023-05-28T12:53:33.349Z,8.85
2023-05-28T12:56:01.106Z,4.13
2023-05-28T12:58:29.220Z,6.53
2023-05-28T13:00:57.026Z,4.85
2023-05-28T13:03:25.043Z,4.05
2023-05-28T13:05:53.932Z,5.10
2023-05-28T13:08:21.483Z,5.45
2023-05-28T13:10:50.777Z,4.97
2023-05-28T13:13:19.267Z,4.25
2023-05-28T13:15:46.920Z,6.35
2023-05-28T13:18:14.596Z,4.65
2023-05-28T13:20:42.465Z,5.43
2023-05-28T13:23:10.110Z,4.05
2023-05-28T13:25:38.212Z,5.63
2023-05-28T13:28:07.133Z,5.40
2023-05-28T13:30:35.071Z,5.53
2023-05-28T13:33:02.672Z,4.88
2023-05-28T13:35:30.358Z,3.75
2023-05-28T13:37:58.297Z,3.97
2023-05-28T13:40:26.005Z,4.57
2023-05-28T13:42:53.559Z,4.05
2023-05-28T13:45:22.770Z,5.45
2023-05-28T13:47:50.754Z,3.00
2023-05-28T13:50:18.520Z,5.10
2023-05-28T13:52:46.324Z,3.35
2023-05-28T13:55:13.934Z,3.78
2023-05-28T13:57:41.485Z,5.30
2023-05-28T14:00:11.662Z,5.88
2023-05-28T14:02:42.294Z,5.10
2023-05-28T14:05:10.753Z,7.43
2023-05-28T14:07:38.461Z,5.57
2023-05-28T14:10:06.672Z,5.18
2023-05-28T14:12:34.324Z,6.07
2023-05-28T14:15:02.159Z,4.93
2023-05-28T14:17:29.736Z,4.60
2023-05-28T14:19:58.718Z,5.40
2023-05-28T14:22:27.620Z,7.22
2023-05-28T14:24:55.188Z,4.72
2023-05-28T14:27:22.796Z,4.57
2023-05-28T14:29:50.405Z,5.38
2023-05-28T14:32:18.009Z,3.47
2023-05-28T14:34:46.160Z,4.60
2023-05-28T14:37:15.110Z,4.65
2023-05-28T14:39:42.826Z,3.50
2023-05-28T14:42:10.521Z,5.10
2023-05-28T14:44:38.180Z,7.40
2023-05-28T14:47:06.756Z,6.97
2023-05-28T14:49:34.508Z,7.30
2023-05-28T14:52:24.365Z,7.63
2023-05-28T14:57:19.888Z,4.03
2023-05-28T14:59:47.571Z,5.80
2023-05-28T15:02:15.675Z,6.30
2023-05-28T15:04:45.240Z,8.13
2023-05-28T15:07:13.847Z,8.65
2023-05-28T15:09:42.746Z,6.85
2023-05-28T15:12:12.148Z,7.15
2023-05-28T15:14:39.772Z,6.00
2023-05-28T15:17:07.550Z,5.43
2023-05-28T15:19:36.653Z,4.85
2023-05-28T15:22:05.993Z,4.00
2023-05-28T15:24:35.718Z,1.73
2023-05-28T15:27:05.166Z,4.40
2023-05-28T15:29:33.088Z,3.95
2023-05-28T15:32:02.562Z,3.90
2023-05-28T15:34:30.769Z,5.13
2023-05-28T15:36:58.832Z,4.70
2023-05-28T15:39:26.816Z,5.78
2023-05-28T15:41:57.155Z,6.20
2023-05-28T15:44:26.635Z,4.57
2023-05-28T15:46:54.375Z,5.22
2023-05-28T15:49:22.042Z,3.30
2023-05-28T15:51:49.632Z,6.05
2023-05-28T15:54:17.356Z,5.40
2023-05-28T15:56:45.422Z,8.05
2023-05-28T15:59:13.259Z,3.17
2023-05-28T16:01:46.149Z,3.42
2023-05-28T16:04:14.441Z,2.65
2023-05-28T16:06:42.461Z,4.03
2023-05-28T16:09:10.560Z,4.88
2023-05-28T16:11:39.009Z,7.82
2023-05-28T16:14:07.389Z,5.82
2023-05-28T16:16:36.289Z,3.78
2023-05-28T16:19:05.778Z,4.63
2023-05-28T16:21:35.568Z,5.60
2023-05-28T16:24:03.339Z,4.22
2023-05-28T16:26:31.618Z,8.35
2023-05-28T16:28:59.383Z,5.68
2023-05-28T16:31:27.577Z,5.72
2023-05-28T16:33:58.647Z,11.00
2023-05-28T16:36:28.342Z,10.02
2023-05-28T16:38:56.125Z,9.27
2023-05-28T16:41:24.648Z,4.60
2023-05-28T16:43:52.867Z,5.70
2023-05-28T16:46:21.200Z,5.70
2023-05-28T16:48:49.644Z,3.42
2023-05-28T16:51:18.339Z,4.22
2023-05-28T16:53:49.839Z,3.95
2023-05-28T16:56:22.740Z,5.10
2023-05-28T16:58:50.361Z,4.78
2023-05-28T17:01:22.566Z,4.47
2023-05-28T17:03:50.440Z,3.58
2023-05-28T17:06:18.465Z,3.95
2023-05-28T17:08:47.495Z,5.07
2023-05-28T17:11:15.129Z,4.75
2023-05-28T17:13:43.446Z,6.38
2023-05-28T17:16:11.181Z,4.57
2023-05-28T17:18:39.722Z,4.53
2023-05-28T17:21:09.212Z,5.78
2023-05-28T17:23:36.912Z,5.72
2023-05-28T17:26:05.988Z,4.70
2023-05-28T17:28:33.640Z,4.93
2023-05-28T17:31:01.206Z,4.00
2023-05-28T17:33:28.783Z,5.05
2023-05-28T17:35:56.578Z,7.45
2023-05-28T17:38:24.313Z,5.63
2023-05-28T17:40:51.954Z,4.40
2023-05-28T17:43:20.843Z,4.60
2023-05-28T17:45:54.096Z,4.35
2023-05-28T17:48:22.634Z,8.70
2023-05-28T17:50:51.726Z,7.82
2023-05-28T17:53:19.538Z,7.38
2023-05-28T17:55:47.301Z,6.60
2023-05-28T17:58:14.902Z,6.50
2023-05-28T18:00:43.814Z,7.22
2023-05-28T18:03:11.442Z,6.18
2023-05-28T18:05:39.013Z,6.28
2023-05-28T18:08:06.689Z,5.88
2023-05-28T18:10:35.946Z,5.72
2023-05-28T18:13:03.613Z,7.47
2023-05-28T18:15:32.867Z,6.47
2023-05-28T18:18:01.877Z,6.20
2023-05-28T18:20:30.024Z,4.03
2023-05-28T18:22:57.650Z,4.78
2023-05-28T18:25:25.258Z,5.95
2023-05-28T18:27:52.825Z,5.60
2023-05-28T18:30:20.479Z,5.30
2023-05-28T18:32:48.112Z,5.85
2023-05-28T18:35:17.272Z,4.82
2023-05-28T18:37:44.834Z,4.30
2023-05-28T18:40:13.187Z,4.40
2023-05-28T18:42:40.749Z,4.07
2023-05-28T18:45:09.592Z,4.00
2023-05-28T18:47:37.564Z,4.63
2023-05-28T18:50:05.783Z,4.65
2023-05-28T18:52:34.729Z,4.97
2023-05-28T18:55:02.302Z,5.68
2023-05-28T18:57:29.882Z,5.22
2023-05-28T18:59:57.964Z,4.95
2023-05-28T19:02:26.220Z,4.30
2023-05-28T19:04:53.953Z,5.97
2023-05-28T19:07:25.887Z,4.97
2023-05-28T19:09:55.567Z,4.03
2023-05-28T19:12:23.312Z,4.47
2023-05-28T19:14:50.919Z,4.82
2023-05-28T19:17:18.454Z,4.50
2023-05-28T19:19:46.546Z,4.07
2023-05-28T19:22:14.128Z,5.85
2023-05-28T19:24:41.724Z,4.85
2023-05-28T19:27:10.776Z,4.28
2023-05-28T19:29:38.338Z,4.20
2023-05-28T19:32:06.478Z,4.10
2023-05-28T19:34:34.125Z,5.75
2023-05-28T19:37:01.797Z,5.28
2023-05-28T19:39:29.352Z,4.25
2023-05-28T19:41:56.926Z,5.07
2023-05-28T19:44:28.820Z,4.10
2023-05-28T19:46:56.610Z,4.07
2023-05-28T19:49:24.459Z,4.63
2023-05-28T19:51:52.396Z,4.82
2023-05-28T19:54:20.530Z,6.00
2023-05-28T19:56:48.143Z,3.80
2023-05-28T19:59:15.803Z,4.55
2023-05-28T20:01:46.465Z,4.28
2023-05-28T20:04:16.109Z,5.40
2023-05-28T20:06:43.835Z,4.55
2023-05-28T20:09:12.323Z,3.70
2023-05-28T20:11:40.134Z,4.28
2023-05-28T20:14:07.741Z,5.05
2023-05-28T20:16:37.362Z,4.30
2023-05-28T20:19:06.768Z,4.75
2023-05-28T20:21:34.376Z,4.63
2023-05-28T20:24:02.168Z,4.55
2023-05-28T20:26:29.784Z,4.25
2023-05-28T20:28:57.398Z,4.43
2023-05-28T20:31:25.084Z,4.28
2023-05-28T20:33:52.683Z,5.25
2023-05-28T20:36:22.055Z,3.95
2023-05-28T20:38:50.416Z,5.32
2023-05-28T20:41:18.552Z,3.95
2023-05-28T20:43:46.413Z,4.05
2023-05-28T20:46:14.018Z,4.70
2023-05-28T20:48:41.620Z,4.68
2023-05-28T20:51:09.547Z,4.53
2023-05-28T20:53:38.475Z,5.45
2023-05-28T20:56:07.280Z,4.60
2023-05-28T20:58:38.877Z,5.05
2023-05-28T21:01:06.679Z,4.35
2023-05-28T21:03:34.359Z,4.65
2023-05-28T21:06:01.965Z,4.57
2023-05-28T21:08:29.549Z,3.50
2023-05-28T21:10:58.440Z,3.80
2023-05-28T21:13:26.010Z,4.50
2023-05-28T21:15:53.671Z,3.65
2023-05-28T21:18:21.376Z,4.57
2023-05-28T21:20:49.140Z,3.55
2023-05-28T21:23:16.830Z,3.95
2023-05-28T21:25:45.319Z,4.78
2023-05-28T21:28:14.321Z,3.83
2023-05-28T21:30:41.896Z,4.50
2023-05-28T21:33:09.635Z,4.32
2023-05-28T21:35:37.257Z,4.55
2023-05-28T21:38:04.826Z,3.60
2023-05-28T21:40:32.410Z,3.58
2023-05-28T21:43:00.024Z,3.80
2023-05-28T21:45:28.922Z,4.22
2023-05-28T21:47:56.598Z,3.67
2023-05-28T21:50:25.609Z,4.60
2023-05-28T21:52:53.548Z,3.88
2023-05-28T21:55:21.158Z,3.35
2023-05-28T21:57:48.826Z,3.50
2023-05-28T22:00:17.186Z,2.78
2023-05-28T22:02:46.617Z,3.90
2023-05-28T22:05:14.820Z,3.47
2023-05-28T22:07:42.877Z,3.72
2023-05-28T22:10:11.368Z,4.10
2023-05-28T22:12:40.049Z,4.43
2023-05-28T22:15:08.958Z,3.50
2023-05-28T22:17:36.920Z,3.67
2023-05-28T22:20:10.279Z,4.18
2023-05-28T22:22:38.798Z,3.58
2023-05-28T22:25:07.936Z,2.95
2023-05-28T22:27:35.788Z,3.33
2023-05-28T22:30:04.171Z,4.80
2023-05-28T22:32:31.860Z,4.07
2023-05-28T22:34:59.467Z,4.35
2023-05-28T22:37:28.962Z,4.43
2023-05-28T22:39:56.553Z,3.33
2023-05-28T22:42:25.072Z,2.97
2023-05-28T22:44:52.662Z,4.80
2023-05-28T22:47:20.515Z,2.95
2023-05-28T22:49:48.090Z,4.05
2023-05-28T22:52:15.759Z,3.58
2023-05-28T22:54:45.051Z,4.07
2023-05-28T22:57:13.530Z,2.90
2023-05-28T22:59:41.309Z,3.55
2023-05-28T23:02:08.914Z,4.53
2023-05-28T23:04:37.121Z,4.00
2023-05-28T23:07:05.073Z,2.58
2023-05-28T23:09:33.029Z,4.25
2023-05-28T23:12:02.905Z,2.80
2023-05-28T23:14:30.699Z,4.63
2023-05-28T23:16:58.801Z,3.10
2023-05-28T23:19:27.917Z,3.65
2023-05-28T23:21:55.682Z,3.80
2023-05-28T23:24:23.298Z,3.33
2023-05-28T23:26:50.855Z,3.40
2023-05-28T23:29:20.721Z,3.58
2023-05-28T23:31:48.822Z,4.05
2023-05-28T23:34:18.622Z,4.10
2023-05-28T23:36:48.640Z,4.25
2023-05-28T23:39:20.515Z,2.78
2023-05-28T23:41:48.244Z,4.10
2023-05-28T23:44:16.212Z,3.13
2023-05-28T23:46:45.518Z,4.32
2023-05-28T23:49:15.161Z,3.53
2023-05-28T23:51:42.785Z,2.58
2023-05-28T23:54:10.345Z,3.17
2023-05-28T23:56:38.339Z,3.88
2023-05-28T23:59:06.003Z,4.22
